Lake Delaware, New York
Current Conditions -  °F | °C
As of 9:55 AM on Wednesday 22 Oct 2014 (Local Time) from KMSV Reporting Station
Overcast Overcast  
Wind Chill: 46°   Ceiling: 1900
Heat Index: 48°   Visibility: 10mi
Dew Point: 46°   Wind: 6mph
Humidity: 93%   Direction: 40°NE
Pressure: 30.01"   Gusts: NA
Location:  42.3065°N, 74.9298°W
Report Text: KMSV 221355Z AUTO 04005KT 10SM OVC019 09/08 A3001 RMK AO1
Loading
Personal Weather Stations






























Interactive Weather Map
Tropical Storm Tracking
New forecast layout! Learn more

10-Day Weather Forecast

Advertisements
Track Severe Weather on mobile